sensor_id;sensor_type;location;lat;lon;timestamp;P1;durP1;ratioP1;P2;durP2;ratioP2
16242;SDS011;11719;51.052;6.982;2023-10-31T00:00:10;0.60;;;0.60;;
16242;SDS011;11719;51.052;6.982;2023-10-31T00:02:37;0.60;;;0.50;;
16242;SDS011;11719;51.052;6.982;2023-10-31T00:05:04;0.50;;;0.30;;
16242;SDS011;11719;51.052;6.982;2023-10-31T00:07:30;0.60;;;0.50;;
16242;SDS011;11719;51.052;6.982;2023-10-31T00:09:56;0.73;;;0.60;;
16242;SDS011;11719;51.052;6.982;2023-10-31T00:12:21;1.33;;;0.90;;
16242;SDS011;11719;51.052;6.982;2023-10-31T00:14:47;1.07;;;0.60;;
16242;SDS011;11719;51.052;6.982;2023-10-31T00:17:13;0.97;;;0.53;;
16242;SDS011;11719;51.052;6.982;2023-10-31T00:19:39;0.90;;;0.80;;
16242;SDS011;11719;51.052;6.982;2023-10-31T00:22:04;0.97;;;0.80;;
16242;SDS011;11719;51.052;6.982;2023-10-31T00:24:47;0.97;;;0.80;;
16242;SDS011;11719;51.052;6.982;2023-10-31T00:27:14;0.63;;;0.57;;
16242;SDS011;11719;51.052;6.982;2023-10-31T00:29:40;0.87;;;0.80;;
16242;SDS011;11719;51.052;6.982;2023-10-31T00:32:06;0.83;;;0.73;;
16242;SDS011;11719;51.052;6.982;2023-10-31T00:34:31;0.70;;;0.67;;
16242;SDS011;11719;51.052;6.982;2023-10-31T00:36:57;0.67;;;0.60;;
16242;SDS011;11719;51.052;6.982;2023-10-31T00:39:23;0.73;;;0.50;;
16242;SDS011;11719;51.052;6.982;2023-10-31T00:41:49;0.87;;;0.80;;
16242;SDS011;11719;51.052;6.982;2023-10-31T00:44:15;0.67;;;0.67;;
16242;SDS011;11719;51.052;6.982;2023-10-31T00:46:41;0.70;;;0.60;;
16242;SDS011;11719;51.052;6.982;2023-10-31T00:49:07;1.00;;;0.80;;
16242;SDS011;11719;51.052;6.982;2023-10-31T00:51:32;1.77;;;0.50;;
16242;SDS011;11719;51.052;6.982;2023-10-31T00:53:58;0.70;;;0.67;;
16242;SDS011;11719;51.052;6.982;2023-10-31T00:56:24;2.23;;;1.07;;
16242;SDS011;11719;51.052;6.982;2023-10-31T00:58:50;1.20;;;0.63;;
16242;SDS011;11719;51.052;6.982;2023-10-31T01:01:15;1.43;;;0.90;;
16242;SDS011;11719;51.052;6.982;2023-10-31T01:03:41;1.00;;;0.90;;
16242;SDS011;11719;51.052;6.982;2023-10-31T01:06:07;0.93;;;0.80;;
16242;SDS011;11719;51.052;6.982;2023-10-31T01:08:34;1.90;;;1.10;;
16242;SDS011;11719;51.052;6.982;2023-10-31T01:11:00;1.23;;;1.13;;
16242;SDS011;11719;51.052;6.982;2023-10-31T01:13:25;1.33;;;0.83;;
16242;SDS011;11719;51.052;6.982;2023-10-31T01:15:51;1.07;;;0.77;;
16242;SDS011;11719;51.052;6.982;2023-10-31T01:18:18;1.43;;;0.60;;
16242;SDS011;11719;51.052;6.982;2023-10-31T01:20:44;0.97;;;0.33;;
16242;SDS011;11719;51.052;6.982;2023-10-31T01:23:10;0.80;;;0.50;;
16242;SDS011;11719;51.052;6.982;2023-10-31T01:25:36;1.30;;;0.50;;
16242;SDS011;11719;51.052;6.982;2023-10-31T01:28:02;1.13;;;0.30;;
16242;SDS011;11719;51.052;6.982;2023-10-31T01:30:27;0.50;;;0.40;;
16242;SDS011;11719;51.052;6.982;2023-10-31T01:32:53;1.30;;;0.50;;
16242;SDS011;11719;51.052;6.982;2023-10-31T01:35:19;0.73;;;0.50;;
16242;SDS011;11719;51.052;6.982;2023-10-31T01:37:45;0.57;;;0.47;;
16242;SDS011;11719;51.052;6.982;2023-10-31T01:40:13;3.30;;;0.80;;
16242;SDS011;11719;51.052;6.982;2023-10-31T01:42:39;0.93;;;0.60;;
16242;SDS011;11719;51.052;6.982;2023-10-31T01:45:05;1.17;;;0.67;;
16242;SDS011;11719;51.052;6.982;2023-10-31T01:47:32;3.97;;;0.57;;
16242;SDS011;11719;51.052;6.982;2023-10-31T01:49:58;0.63;;;0.50;;
16242;SDS011;11719;51.052;6.982;2023-10-31T01:52:25;1.57;;;0.57;;
16242;SDS011;11719;51.052;6.982;2023-10-31T01:54:51;1.90;;;0.43;;
16242;SDS011;11719;51.052;6.982;2023-10-31T01:57:18;2.53;;;0.53;;
16242;SDS011;11719;51.052;6.982;2023-10-31T01:59:46;2.47;;;0.57;;
16242;SDS011;11719;51.052;6.982;2023-10-31T02:02:13;0.50;;;0.40;;
16242;SDS011;11719;51.052;6.982;2023-10-31T02:04:39;1.00;;;0.50;;
16242;SDS011;11719;51.052;6.982;2023-10-31T02:07:05;0.73;;;0.60;;
16242;SDS011;11719;51.052;6.982;2023-10-31T02:09:31;1.40;;;0.77;;
16242;SDS011;11719;51.052;6.982;2023-10-31T02:11:57;0.83;;;0.60;;
16242;SDS011;11719;51.052;6.982;2023-10-31T02:14:23;1.27;;;0.60;;
16242;SDS011;11719;51.052;6.982;2023-10-31T02:16:49;2.27;;;0.90;;
16242;SDS011;11719;51.052;6.982;2023-10-31T02:19:18;1.00;;;0.73;;
16242;SDS011;11719;51.052;6.982;2023-10-31T02:21:45;0.80;;;0.60;;
16242;SDS011;11719;51.052;6.982;2023-10-31T02:24:11;3.93;;;0.70;;
16242;SDS011;11719;51.052;6.982;2023-10-31T02:26:37;0.90;;;0.50;;
16242;SDS011;11719;51.052;6.982;2023-10-31T02:29:03;0.90;;;0.53;;
16242;SDS011;11719;51.052;6.982;2023-10-31T02:31:29;4.73;;;0.73;;
16242;SDS011;11719;51.052;6.982;2023-10-31T02:33:55;1.13;;;0.60;;
16242;SDS011;11719;51.052;6.982;2023-10-31T02:36:21;1.50;;;0.80;;
16242;SDS011;11719;51.052;6.982;2023-10-31T02:38:48;1.47;;;0.60;;
16242;SDS011;11719;51.052;6.982;2023-10-31T02:41:14;1.10;;;0.60;;
16242;SDS011;11719;51.052;6.982;2023-10-31T02:43:40;2.87;;;0.70;;
16242;SDS011;11719;51.052;6.982;2023-10-31T02:46:07;1.13;;;0.73;;
16242;SDS011;11719;51.052;6.982;2023-10-31T02:48:33;2.83;;;0.73;;
16242;SDS011;11719;51.052;6.982;2023-10-31T02:51:07;1.37;;;0.60;;
16242;SDS011;11719;51.052;6.982;2023-10-31T02:53:34;0.93;;;0.43;;
16242;SDS011;11719;51.052;6.982;2023-10-31T02:56:01;0.93;;;0.50;;
16242;SDS011;11719;51.052;6.982;2023-10-31T02:58:27;2.63;;;0.87;;
16242;SDS011;11719;51.052;6.982;2023-10-31T03:00:53;0.70;;;0.50;;
16242;SDS011;11719;51.052;6.982;2023-10-31T03:03:19;1.90;;;0.50;;
16242;SDS011;11719;51.052;6.982;2023-10-31T03:05:44;2.27;;;0.50;;
16242;SDS011;11719;51.052;6.982;2023-10-31T03:08:10;2.50;;;0.70;;
16242;SDS011;11719;51.052;6.982;2023-10-31T03:10:38;0.97;;;0.67;;
16242;SDS011;11719;51.052;6.982;2023-10-31T03:13:04;3.70;;;0.80;;
16242;SDS011;11719;51.052;6.982;2023-10-31T03:15:30;1.80;;;0.70;;
16242;SDS011;11719;51.052;6.982;2023-10-31T03:17:56;1.30;;;0.67;;
16242;SDS011;11719;51.052;6.982;2023-10-31T03:20:21;2.63;;;0.60;;
16242;SDS011;11719;51.052;6.982;2023-10-31T03:22:47;1.10;;;0.60;;
16242;SDS011;11719;51.052;6.982;2023-10-31T03:25:13;0.50;;;0.40;;
16242;SDS011;11719;51.052;6.982;2023-10-31T03:27:39;1.00;;;0.60;;
16242;SDS011;11719;51.052;6.982;2023-10-31T03:30:05;3.10;;;1.03;;
16242;SDS011;11719;51.052;6.982;2023-10-31T03:32:31;2.20;;;0.80;;
16242;SDS011;11719;51.052;6.982;2023-10-31T03:34:57;2.43;;;1.00;;
16242;SDS011;11719;51.052;6.982;2023-10-31T03:37:23;1.03;;;0.73;;
16242;SDS011;11719;51.052;6.982;2023-10-31T03:39:49;1.10;;;0.80;;
16242;SDS011;11719;51.052;6.982;2023-10-31T03:42:14;0.37;;;0.33;;
16242;SDS011;11719;51.052;6.982;2023-10-31T03:44:41;3.27;;;0.77;;
16242;SDS011;11719;51.052;6.982;2023-10-31T03:47:07;0.70;;;0.40;;
16242;SDS011;11719;51.052;6.982;2023-10-31T03:49:33;2.40;;;0.60;;
16242;SDS011;11719;51.052;6.982;2023-10-31T03:51:58;5.00;;;0.87;;
16242;SDS011;11719;51.052;6.982;2023-10-31T03:54:24;2.40;;;0.60;;
16242;SDS011;11719;51.052;6.982;2023-10-31T03:56:50;2.03;;;0.53;;
16242;SDS011;11719;51.052;6.982;2023-10-31T03:59:16;2.03;;;0.60;;
16242;SDS011;11719;51.052;6.982;2023-10-31T04:01:42;1.37;;;0.70;;
16242;SDS011;11719;51.052;6.982;2023-10-31T04:04:07;0.80;;;0.50;;
16242;SDS011;11719;51.052;6.982;2023-10-31T04:06:33;0.83;;;0.50;;
16242;SDS011;11719;51.052;6.982;2023-10-31T04:08:59;0.73;;;0.60;;
16242;SDS011;11719;51.052;6.982;2023-10-31T04:11:25;1.73;;;0.70;;
16242;SDS011;11719;51.052;6.982;2023-10-31T04:13:51;1.43;;;0.53;;
16242;SDS011;11719;51.052;6.982;2023-10-31T04:16:16;2.17;;;0.93;;
16242;SDS011;11719;51.052;6.982;2023-10-31T04:18:42;1.23;;;0.40;;
16242;SDS011;11719;51.052;6.982;2023-10-31T04:21:08;1.60;;;0.50;;
16242;SDS011;11719;51.052;6.982;2023-10-31T04:23:34;1.60;;;0.50;;
16242;SDS011;11719;51.052;6.982;2023-10-31T04:26:00;1.47;;;0.30;;
16242;SDS011;11719;51.052;6.982;2023-10-31T04:28:26;0.50;;;0.37;;
16242;SDS011;11719;51.052;6.982;2023-10-31T04:30:52;0.57;;;0.50;;
16242;SDS011;11719;51.052;6.982;2023-10-31T04:33:18;0.40;;;0.40;;
16242;SDS011;11719;51.052;6.982;2023-10-31T04:35:43;0.23;;;0.20;;
16242;SDS011;11719;51.052;6.982;2023-10-31T04:38:09;0.70;;;0.40;;
16242;SDS011;11719;51.052;6.982;2023-10-31T04:40:35;1.23;;;0.50;;
16242;SDS011;11719;51.052;6.982;2023-10-31T04:43:01;2.83;;;0.60;;
16242;SDS011;11719;51.052;6.982;2023-10-31T04:45:27;1.10;;;0.40;;
16242;SDS011;11719;51.052;6.982;2023-10-31T04:47:53;1.43;;;0.60;;
16242;SDS011;11719;51.052;6.982;2023-10-31T04:50:19;0.60;;;0.50;;
16242;SDS011;11719;51.052;6.982;2023-10-31T04:52:44;0.67;;;0.40;;
16242;SDS011;11719;51.052;6.982;2023-10-31T04:55:10;0.50;;;0.40;;
16242;SDS011;11719;51.052;6.982;2023-10-31T04:57:36;1.00;;;0.70;;
16242;SDS011;11719;51.052;6.982;2023-10-31T05:00:02;0.87;;;0.50;;
16242;SDS011;11719;51.052;6.982;2023-10-31T05:02:30;0.70;;;0.50;;
16242;SDS011;11719;51.052;6.982;2023-10-31T05:04:56;1.70;;;0.63;;
16242;SDS011;11719;51.052;6.982;2023-10-31T05:07:23;1.07;;;0.70;;
16242;SDS011;11719;51.052;6.982;2023-10-31T05:09:49;1.30;;;0.70;;
16242;SDS011;11719;51.052;6.982;2023-10-31T05:12:14;3.40;;;0.60;;
16242;SDS011;11719;51.052;6.982;2023-10-31T05:14:40;2.77;;;1.00;;
16242;SDS011;11719;51.052;6.982;2023-10-31T05:17:06;3.30;;;0.90;;
16242;SDS011;11719;51.052;6.982;2023-10-31T05:19:32;0.43;;;0.43;;
16242;SDS011;11719;51.052;6.982;2023-10-31T05:21:58;1.23;;;0.70;;
16242;SDS011;11719;51.052;6.982;2023-10-31T05:24:23;1.20;;;0.63;;
16242;SDS011;11719;51.052;6.982;2023-10-31T05:26:49;2.57;;;1.20;;
16242;SDS011;11719;51.052;6.982;2023-10-31T05:29:15;1.87;;;0.77;;
16242;SDS011;11719;51.052;6.982;2023-10-31T05:31:41;1.53;;;0.90;;
16242;SDS011;11719;51.052;6.982;2023-10-31T05:34:08;1.10;;;0.73;;
16242;SDS011;11719;51.052;6.982;2023-10-31T05:36:34;1.13;;;0.80;;
16242;SDS011;11719;51.052;6.982;2023-10-31T05:39:00;1.00;;;0.87;;
16242;SDS011;11719;51.052;6.982;2023-10-31T05:41:26;1.80;;;0.93;;
16242;SDS011;11719;51.052;6.982;2023-10-31T05:43:51;0.97;;;0.70;;
16242;SDS011;11719;51.052;6.982;2023-10-31T05:46:17;0.90;;;0.70;;
16242;SDS011;11719;51.052;6.982;2023-10-31T05:48:44;1.27;;;0.60;;
16242;SDS011;11719;51.052;6.982;2023-10-31T05:51:18;1.47;;;0.87;;
16242;SDS011;11719;51.052;6.982;2023-10-31T05:53:45;2.40;;;0.83;;
16242;SDS011;11719;51.052;6.982;2023-10-31T05:56:13;2.13;;;0.97;;
16242;SDS011;11719;51.052;6.982;2023-10-31T05:58:40;0.93;;;0.77;;
16242;SDS011;11719;51.052;6.982;2023-10-31T06:01:07;1.20;;;1.00;;
16242;SDS011;11719;51.052;6.982;2023-10-31T06:03:33;0.80;;;0.80;;
16242;SDS011;11719;51.052;6.982;2023-10-31T06:05:59;1.10;;;1.00;;
16242;SDS011;11719;51.052;6.982;2023-10-31T06:08:25;0.93;;;0.77;;
16242;SDS011;11719;51.052;6.982;2023-10-31T06:10:54;0.93;;;0.60;;
16242;SDS011;11719;51.052;6.982;2023-10-31T06:13:21;0.60;;;0.60;;
16242;SDS011;11719;51.052;6.982;2023-10-31T06:15:47;1.50;;;0.90;;
16242;SDS011;11719;51.052;6.982;2023-10-31T06:18:13;1.27;;;1.13;;
16242;SDS011;11719;51.052;6.982;2023-10-31T06:20:39;0.77;;;0.67;;
16242;SDS011;11719;51.052;6.982;2023-10-31T06:23:05;0.83;;;0.70;;
16242;SDS011;11719;51.052;6.982;2023-10-31T06:25:30;2.43;;;1.07;;
16242;SDS011;11719;51.052;6.982;2023-10-31T06:27:56;1.43;;;0.90;;
16242;SDS011;11719;51.052;6.982;2023-10-31T06:30:22;1.20;;;1.10;;
16242;SDS011;11719;51.052;6.982;2023-10-31T06:32:49;1.10;;;1.00;;
16242;SDS011;11719;51.052;6.982;2023-10-31T06:35:19;1.33;;;1.00;;
16242;SDS011;11719;51.052;6.982;2023-10-31T06:37:44;1.77;;;1.10;;
16242;SDS011;11719;51.052;6.982;2023-10-31T06:40:10;1.13;;;1.03;;
16242;SDS011;11719;51.052;6.982;2023-10-31T06:42:37;1.00;;;0.90;;
16242;SDS011;11719;51.052;6.982;2023-10-31T06:45:03;1.27;;;1.07;;
16242;SDS011;11719;51.052;6.982;2023-10-31T06:47:30;1.90;;;1.27;;
16242;SDS011;11719;51.052;6.982;2023-10-31T06:49:56;1.93;;;1.23;;
16242;SDS011;11719;51.052;6.982;2023-10-31T06:52:21;1.00;;;0.90;;
16242;SDS011;11719;51.052;6.982;2023-10-31T06:54:47;2.43;;;1.20;;
16242;SDS011;11719;51.052;6.982;2023-10-31T06:57:14;0.97;;;0.80;;
16242;SDS011;11719;51.052;6.982;2023-10-31T06:59:41;1.33;;;1.23;;
16242;SDS011;11719;51.052;6.982;2023-10-31T07:02:07;1.40;;;1.20;;
16242;SDS011;11719;51.052;6.982;2023-10-31T07:04:33;2.20;;;1.63;;
16242;SDS011;11719;51.052;6.982;2023-10-31T07:06:59;1.27;;;1.10;;
16242;SDS011;11719;51.052;6.982;2023-10-31T07:09:26;1.20;;;1.10;;
16242;SDS011;11719;51.052;6.982;2023-10-31T07:11:52;2.00;;;1.27;;
16242;SDS011;11719;51.052;6.982;2023-10-31T07:14:18;2.90;;;1.47;;
16242;SDS011;11719;51.052;6.982;2023-10-31T07:16:44;1.27;;;1.03;;
16242;SDS011;11719;51.052;6.982;2023-10-31T07:19:10;1.53;;;1.10;;
16242;SDS011;11719;51.052;6.982;2023-10-31T07:21:36;3.80;;;1.47;;
16242;SDS011;11719;51.052;6.982;2023-10-31T07:24:02;2.00;;;1.40;;
16242;SDS011;11719;51.052;6.982;2023-10-31T07:26:28;3.30;;;1.80;;
16242;SDS011;11719;51.052;6.982;2023-10-31T07:28:54;1.53;;;1.40;;
16242;SDS011;11719;51.052;6.982;2023-10-31T07:31:19;3.03;;;1.80;;
16242;SDS011;11719;51.052;6.982;2023-10-31T07:33:45;2.80;;;1.70;;
16242;SDS011;11719;51.052;6.982;2023-10-31T07:36:11;3.30;;;1.43;;
16242;SDS011;11719;51.052;6.982;2023-10-31T07:38:38;2.47;;;2.00;;
16242;SDS011;11719;51.052;6.982;2023-10-31T07:41:04;2.63;;;1.73;;
16242;SDS011;11719;51.052;6.982;2023-10-31T07:43:29;1.13;;;0.83;;
16242;SDS011;11719;51.052;6.982;2023-10-31T07:45:55;2.17;;;1.53;;
16242;SDS011;11719;51.052;6.982;2023-10-31T07:48:21;2.20;;;1.50;;
16242;SDS011;11719;51.052;6.982;2023-10-31T07:50:47;2.37;;;1.50;;
16242;SDS011;11719;51.052;6.982;2023-10-31T07:53:12;1.87;;;1.40;;
16242;SDS011;11719;51.052;6.982;2023-10-31T07:55:38;2.00;;;1.37;;
16242;SDS011;11719;51.052;6.982;2023-10-31T07:58:04;5.90;;;1.57;;
16242;SDS011;11719;51.052;6.982;2023-10-31T08:00:30;1.50;;;1.40;;
16242;SDS011;11719;51.052;6.982;2023-10-31T08:02:56;3.03;;;1.63;;
16242;SDS011;11719;51.052;6.982;2023-10-31T08:05:21;1.20;;;1.10;;
16242;SDS011;11719;51.052;6.982;2023-10-31T08:07:47;1.40;;;1.10;;
16242;SDS011;11719;51.052;6.982;2023-10-31T08:10:13;1.70;;;1.10;;
16242;SDS011;11719;51.052;6.982;2023-10-31T08:12:39;1.90;;;1.20;;
16242;SDS011;11719;51.052;6.982;2023-10-31T08:15:05;2.93;;;1.20;;
16242;SDS011;11719;51.052;6.982;2023-10-31T08:17:31;1.63;;;1.30;;
16242;SDS011;11719;51.052;6.982;2023-10-31T08:19:57;2.03;;;1.17;;
16242;SDS011;11719;51.052;6.982;2023-10-31T08:22:22;1.57;;;1.17;;
16242;SDS011;11719;51.052;6.982;2023-10-31T08:24:48;2.53;;;1.40;;
16242;SDS011;11719;51.052;6.982;2023-10-31T08:27:14;1.50;;;0.97;;
16242;SDS011;11719;51.052;6.982;2023-10-31T08:29:40;3.03;;;1.27;;
16242;SDS011;11719;51.052;6.982;2023-10-31T08:32:06;4.63;;;1.60;;
16242;SDS011;11719;51.052;6.982;2023-10-31T08:34:32;2.10;;;0.80;;
16242;SDS011;11719;51.052;6.982;2023-10-31T08:36:58;1.53;;;1.03;;
16242;SDS011;11719;51.052;6.982;2023-10-31T08:39:25;2.20;;;1.40;;
16242;SDS011;11719;51.052;6.982;2023-10-31T08:41:55;2.63;;;1.30;;
16242;SDS011;11719;51.052;6.982;2023-10-31T08:44:22;1.73;;;1.27;;
16242;SDS011;11719;51.052;6.982;2023-10-31T08:46:48;1.20;;;0.97;;
16242;SDS011;11719;51.052;6.982;2023-10-31T08:49:15;1.83;;;1.20;;
16242;SDS011;11719;51.052;6.982;2023-10-31T08:51:41;1.93;;;1.33;;
16242;SDS011;11719;51.052;6.982;2023-10-31T08:54:08;2.47;;;0.90;;
16242;SDS011;11719;51.052;6.982;2023-10-31T08:56:35;1.97;;;1.23;;
16242;SDS011;11719;51.052;6.982;2023-10-31T08:59:00;1.37;;;0.90;;
16242;SDS011;11719;51.052;6.982;2023-10-31T09:01:27;1.67;;;1.10;;
16242;SDS011;11719;51.052;6.982;2023-10-31T09:03:56;1.17;;;0.97;;
16242;SDS011;11719;51.052;6.982;2023-10-31T09:06:23;1.20;;;0.97;;
16242;SDS011;11719;51.052;6.982;2023-10-31T09:08:49;2.20;;;1.20;;
16242;SDS011;11719;51.052;6.982;2023-10-31T09:11:15;1.47;;;1.07;;
16242;SDS011;11719;51.052;6.982;2023-10-31T09:13:41;1.10;;;0.80;;
16242;SDS011;11719;51.052;6.982;2023-10-31T09:16:07;1.73;;;1.30;;
16242;SDS011;11719;51.052;6.982;2023-10-31T09:18:33;2.30;;;1.40;;
16242;SDS011;11719;51.052;6.982;2023-10-31T09:20:59;1.00;;;0.77;;
16242;SDS011;11719;51.052;6.982;2023-10-31T09:23:25;3.13;;;1.60;;
16242;SDS011;11719;51.052;6.982;2023-10-31T09:25:51;4.17;;;1.60;;
16242;SDS011;11719;51.052;6.982;2023-10-31T09:28:17;2.13;;;1.20;;
16242;SDS011;11719;51.052;6.982;2023-10-31T09:30:43;2.60;;;1.00;;
16242;SDS011;11719;51.052;6.982;2023-10-31T09:33:09;3.33;;;1.00;;
16242;SDS011;11719;51.052;6.982;2023-10-31T09:35:35;1.30;;;1.03;;
16242;SDS011;11719;51.052;6.982;2023-10-31T09:38:00;1.77;;;1.20;;
16242;SDS011;11719;51.052;6.982;2023-10-31T09:40:26;1.40;;;0.80;;
16242;SDS011;11719;51.052;6.982;2023-10-31T09:42:52;1.40;;;1.10;;
16242;SDS011;11719;51.052;6.982;2023-10-31T09:45:18;1.30;;;1.07;;
16242;SDS011;11719;51.052;6.982;2023-10-31T09:47:43;1.23;;;1.00;;
16242;SDS011;11719;51.052;6.982;2023-10-31T09:50:09;1.33;;;0.80;;
16242;SDS011;11719;51.052;6.982;2023-10-31T09:52:36;2.33;;;1.20;;
16242;SDS011;11719;51.052;6.982;2023-10-31T09:55:02;1.93;;;0.77;;
16242;SDS011;11719;51.052;6.982;2023-10-31T09:57:30;2.13;;;1.23;;
16242;SDS011;11719;51.052;6.982;2023-10-31T09:59:56;1.00;;;0.80;;
16242;SDS011;11719;51.052;6.982;2023-10-31T10:02:22;1.57;;;1.10;;
16242;SDS011;11719;51.052;6.982;2023-10-31T10:04:48;1.13;;;0.90;;
16242;SDS011;11719;51.052;6.982;2023-10-31T10:07:15;1.90;;;0.90;;
16242;SDS011;11719;51.052;6.982;2023-10-31T10:09:43;2.17;;;0.77;;
16242;SDS011;11719;51.052;6.982;2023-10-31T10:12:14;1.43;;;0.93;;
16242;SDS011;11719;51.052;6.982;2023-10-31T10:14:42;2.87;;;1.07;;
16242;SDS011;11719;51.052;6.982;2023-10-31T10:17:17;0.80;;;0.80;;
16242;SDS011;11719;51.052;6.982;2023-10-31T10:20:22;0.90;;;0.80;;
16242;SDS011;11719;51.052;6.982;2023-10-31T10:22:41;0.80;;;0.80;;
16242;SDS011;11719;51.052;6.982;2023-10-31T10:25:13;2.87;;;0.60;;
16242;SDS011;11719;51.052;6.982;2023-10-31T10:27:42;1.83;;;0.70;;
16242;SDS011;11719;51.052;6.982;2023-10-31T10:30:08;0.60;;;0.60;;
16242;SDS011;11719;51.052;6.982;2023-10-31T10:32:35;2.40;;;0.90;;
16242;SDS011;11719;51.052;6.982;2023-10-31T10:35:01;0.83;;;0.80;;
16242;SDS011;11719;51.052;6.982;2023-10-31T10:37:27;4.43;;;0.90;;
16242;SDS011;11719;51.052;6.982;2023-10-31T10:39:55;1.33;;;0.60;;
16242;SDS011;11719;51.052;6.982;2023-10-31T10:42:43;0.70;;;0.60;;
16242;SDS011;11719;51.052;6.982;2023-10-31T10:45:12;1.13;;;0.60;;
16242;SDS011;11719;51.052;6.982;2023-10-31T10:47:46;1.67;;;0.60;;
16242;SDS011;11719;51.052;6.982;2023-10-31T10:50:15;1.20;;;0.63;;
16242;SDS011;11719;51.052;6.982;2023-10-31T10:52:53;0.60;;;0.60;;
16242;SDS011;11719;51.052;6.982;2023-10-31T10:55:30;2.30;;;0.63;;
16242;SDS011;11719;51.052;6.982;2023-10-31T10:58:15;0.80;;;0.60;;
16242;SDS011;11719;51.052;6.982;2023-10-31T11:01:24;1.43;;;0.60;;
16242;SDS011;11719;51.052;6.982;2023-10-31T11:03:52;0.80;;;0.70;;
16242;SDS011;11719;51.052;6.982;2023-10-31T11:06:20;0.57;;;0.57;;
16242;SDS011;11719;51.052;6.982;2023-10-31T11:08:47;0.90;;;0.70;;
16242;SDS011;11719;51.052;6.982;2023-10-31T11:11:12;0.77;;;0.60;;
16242;SDS011;11719;51.052;6.982;2023-10-31T11:13:42;0.80;;;0.60;;
16242;SDS011;11719;51.052;6.982;2023-10-31T11:16:13;0.57;;;0.47;;
16242;SDS011;11719;51.052;6.982;2023-10-31T11:18:49;1.07;;;0.57;;
16242;SDS011;11719;51.052;6.982;2023-10-31T11:21:15;1.57;;;0.50;;
16242;SDS011;11719;51.052;6.982;2023-10-31T11:23:41;2.03;;;0.50;;
16242;SDS011;11719;51.052;6.982;2023-10-31T11:26:07;1.00;;;0.30;;
16242;SDS011;11719;51.052;6.982;2023-10-31T11:28:33;0.93;;;0.50;;
16242;SDS011;11719;51.052;6.982;2023-10-31T11:31:01;0.40;;;0.30;;
16242;SDS011;11719;51.052;6.982;2023-10-31T11:33:28;0.90;;;0.50;;
16242;SDS011;11719;51.052;6.982;2023-10-31T11:36:01;1.27;;;0.40;;
16242;SDS011;11719;51.052;6.982;2023-10-31T11:38:32;1.50;;;0.50;;
16242;SDS011;11719;51.052;6.982;2023-10-31T11:41:02;2.23;;;0.47;;
16242;SDS011;11719;51.052;6.982;2023-10-31T11:44:03;0.60;;;0.40;;
16242;SDS011;11719;51.052;6.982;2023-10-31T11:46:23;0.30;;;0.30;;
16242;SDS011;11719;51.052;6.982;2023-10-31T11:48:54;1.30;;;0.20;;
16242;SDS011;11719;51.052;6.982;2023-10-31T11:51:21;0.37;;;0.30;;
16242;SDS011;11719;51.052;6.982;2023-10-31T11:53:49;0.70;;;0.43;;
16242;SDS011;11719;51.052;6.982;2023-10-31T11:56:16;0.37;;;0.37;;
16242;SDS011;11719;51.052;6.982;2023-10-31T11:58:42;3.13;;;0.60;;
16242;SDS011;11719;51.052;6.982;2023-10-31T12:01:08;0.63;;;0.50;;
16242;SDS011;11719;51.052;6.982;2023-10-31T12:06:08;0.40;;;0.40;;
16242;SDS011;11719;51.052;6.982;2023-10-31T12:08:38;2.20;;;0.73;;
16242;SDS011;11719;51.052;6.982;2023-10-31T12:11:07;2.57;;;0.57;;
16242;SDS011;11719;51.052;6.982;2023-10-31T12:13:36;2.90;;;0.40;;
16242;SDS011;11719;51.052;6.982;2023-10-31T12:16:05;1.00;;;0.40;;
16242;SDS011;11719;51.052;6.982;2023-10-31T12:18:35;0.80;;;0.57;;
16242;SDS011;11719;51.052;6.982;2023-10-31T12:21:04;0.83;;;0.30;;
16242;SDS011;11719;51.052;6.982;2023-10-31T12:23:32;0.30;;;0.20;;
16242;SDS011;11719;51.052;6.982;2023-10-31T12:25:58;0.67;;;0.40;;
16242;SDS011;11719;51.052;6.982;2023-10-31T12:28:24;1.43;;;0.30;;
16242;SDS011;11719;51.052;6.982;2023-10-31T12:30:53;0.53;;;0.43;;
16242;SDS011;11719;51.052;6.982;2023-10-31T12:33:21;0.40;;;0.40;;
16242;SDS011;11719;51.052;6.982;2023-10-31T12:35:52;0.50;;;0.37;;
16242;SDS011;11719;51.052;6.982;2023-10-31T12:38:22;0.43;;;0.40;;
16242;SDS011;11719;51.052;6.982;2023-10-31T12:40:48;0.80;;;0.60;;
16242;SDS011;11719;51.052;6.982;2023-10-31T12:43:15;2.20;;;0.73;;
16242;SDS011;11719;51.052;6.982;2023-10-31T12:45:42;0.77;;;0.50;;
16242;SDS011;11719;51.052;6.982;2023-10-31T12:48:09;1.13;;;0.50;;
16242;SDS011;11719;51.052;6.982;2023-10-31T12:50:37;0.30;;;0.30;;
16242;SDS011;11719;51.052;6.982;2023-10-31T12:53:07;3.13;;;0.70;;
16242;SDS011;11719;51.052;6.982;2023-10-31T12:55:40;0.33;;;0.30;;
16242;SDS011;11719;51.052;6.982;2023-10-31T12:58:08;0.63;;;0.50;;
16242;SDS011;11719;51.052;6.982;2023-10-31T13:00:35;0.73;;;0.30;;
16242;SDS011;11719;51.052;6.982;2023-10-31T13:03:05;1.10;;;0.37;;
16242;SDS011;11719;51.052;6.982;2023-10-31T13:05:33;0.80;;;0.47;;
16242;SDS011;11719;51.052;6.982;2023-10-31T13:08:01;0.93;;;0.77;;
16242;SDS011;11719;51.052;6.982;2023-10-31T13:10:29;2.33;;;0.50;;
16242;SDS011;11719;51.052;6.982;2023-10-31T13:12:57;1.67;;;0.50;;
16242;SDS011;11719;51.052;6.982;2023-10-31T13:15:23;1.03;;;0.30;;
16242;SDS011;11719;51.052;6.982;2023-10-31T13:17:50;0.80;;;0.40;;
16242;SDS011;11719;51.052;6.982;2023-10-31T13:20:17;0.50;;;0.20;;
16242;SDS011;11719;51.052;6.982;2023-10-31T13:22:45;1.07;;;0.60;;
16242;SDS011;11719;51.052;6.982;2023-10-31T13:25:12;1.10;;;0.43;;
16242;SDS011;11719;51.052;6.982;2023-10-31T13:27:40;2.47;;;0.63;;
16242;SDS011;11719;51.052;6.982;2023-10-31T13:30:08;0.43;;;0.20;;
16242;SDS011;11719;51.052;6.982;2023-10-31T13:32:38;1.23;;;0.33;;
16242;SDS011;11719;51.052;6.982;2023-10-31T13:35:06;1.87;;;0.33;;
16242;SDS011;11719;51.052;6.982;2023-10-31T13:37:36;1.17;;;0.20;;
16242;SDS011;11719;51.052;6.982;2023-10-31T13:40:02;1.60;;;0.30;;
16242;SDS011;11719;51.052;6.982;2023-10-31T13:42:29;3.50;;;0.43;;
16242;SDS011;11719;51.052;6.982;2023-10-31T13:44:55;0.37;;;0.30;;
16242;SDS011;11719;51.052;6.982;2023-10-31T13:47:21;0.80;;;0.40;;
16242;SDS011;11719;51.052;6.982;2023-10-31T13:49:47;0.50;;;0.37;;
16242;SDS011;11719;51.052;6.982;2023-10-31T13:52:13;0.70;;;0.20;;
16242;SDS011;11719;51.052;6.982;2023-10-31T13:54:40;0.67;;;0.30;;
16242;SDS011;11719;51.052;6.982;2023-10-31T13:57:06;0.60;;;0.37;;
16242;SDS011;11719;51.052;6.982;2023-10-31T13:59:32;0.93;;;0.40;;
16242;SDS011;11719;51.052;6.982;2023-10-31T14:01:57;1.07;;;0.40;;
16242;SDS011;11719;51.052;6.982;2023-10-31T14:04:23;2.00;;;0.43;;
16242;SDS011;11719;51.052;6.982;2023-10-31T14:06:49;0.33;;;0.30;;
16242;SDS011;11719;51.052;6.982;2023-10-31T14:09:15;1.23;;;0.60;;
16242;SDS011;11719;51.052;6.982;2023-10-31T14:11:41;1.53;;;0.43;;
16242;SDS011;11719;51.052;6.982;2023-10-31T14:14:07;4.20;;;0.77;;
16242;SDS011;11719;51.052;6.982;2023-10-31T14:16:41;2.27;;;0.50;;
16242;SDS011;11719;51.052;6.982;2023-10-31T14:19:10;3.57;;;0.50;;
16242;SDS011;11719;51.052;6.982;2023-10-31T14:21:38;1.17;;;0.40;;
16242;SDS011;11719;51.052;6.982;2023-10-31T14:24:05;1.33;;;0.40;;
16242;SDS011;11719;51.052;6.982;2023-10-31T14:26:33;0.80;;;0.47;;
16242;SDS011;11719;51.052;6.982;2023-10-31T14:29:01;0.73;;;0.40;;
16242;SDS011;11719;51.052;6.982;2023-10-31T14:31:27;1.33;;;0.50;;
16242;SDS011;11719;51.052;6.982;2023-10-31T14:33:53;2.63;;;0.30;;
16242;SDS011;11719;51.052;6.982;2023-10-31T14:36:19;1.43;;;0.40;;
16242;SDS011;11719;51.052;6.982;2023-10-31T14:38:45;3.00;;;0.50;;
16242;SDS011;11719;51.052;6.982;2023-10-31T14:41:11;1.00;;;0.43;;
16242;SDS011;11719;51.052;6.982;2023-10-31T14:43:36;1.27;;;0.40;;
16242;SDS011;11719;51.052;6.982;2023-10-31T14:46:02;2.87;;;0.30;;
16242;SDS011;11719;51.052;6.982;2023-10-31T14:48:30;1.13;;;0.33;;